Time;durP1;ratioP1;P1;durP2;ratioP2;P2;SDS_P1;SDS_P2;PMS_P1;PMS_P2;Temp;Humidity;BMP_temperature;BMP_pressure;BME280_temperature;BME280_humidity;BME280_pressure;Samples;Min_cycle;Max_cycle;Signal;HPM_P1;HPM_P2
2022/09/16 00:01:31;;;;;;;2.80;1.60;;;;;;;13.30;100.00;98449.44;5008549;28;20210;-82
2022/09/16 00:04:00;;;;;;;8.00;2.27;;;;;;;13.41;100.00;98450.19;5008231;28;20198;-83
2022/09/16 00:06:30;;;;;;;8.07;2.30;;;;;;;13.32;100.00;98458.97;5007030;28;20206;-82
2022/09/16 00:09:04;;;;;;;6.43;2.30;;;;;;;13.35;100.00;98455.19;5006824;28;20195;-82
2022/09/16 00:11:34;;;;;;;4.93;2.27;;;;;;;13.26;100.00;98458.66;4986953;28;20199;-82
2022/09/16 00:14:03;;;;;;;6.97;2.27;;;;;;;13.29;100.00;98463.69;4988884;28;20246;-82
2022/09/16 00:16:33;;;;;;;5.87;2.40;;;;;;;13.33;100.00;98458.00;4987376;28;20302;-82
2022/09/16 00:19:04;;;;;;;4.33;2.10;;;;;;;13.34;100.00;98456.19;4985382;28;20195;-82
2022/09/16 00:21:33;;;;;;;6.90;1.97;;;;;;;13.35;100.00;98468.50;4983283;28;20199;-82
2022/09/16 00:24:02;;;;;;;6.87;2.30;;;;;;;13.30;100.00;98462.72;4981920;28;20195;-82
2022/09/16 00:26:33;;;;;;;6.27;2.23;;;;;;;13.34;100.00;98467.66;4975219;28;20258;-82
2022/09/16 00:29:04;;;;;;;5.97;1.90;;;;;;;13.26;100.00;98466.63;4986360;28;20192;-82
2022/09/16 00:31:32;;;;;;;3.73;2.07;;;;;;;13.26;100.00;98469.28;4987651;28;20191;-82
2022/09/16 00:34:01;;;;;;;7.17;1.97;;;;;;;13.34;100.00;98467.66;4986084;28;20230;-82
2022/09/16 00:36:30;;;;;;;4.60;2.07;;;;;;;13.35;100.00;98471.16;5015806;28;20225;-82
2022/09/16 00:39:01;;;;;;;8.03;2.00;;;;;;;13.24;100.00;98472.09;5029670;28;20203;-82
2022/09/16 00:41:32;;;;;;;5.80;2.10;;;;;;;13.34;100.00;98474.81;5064000;28;20232;-82
2022/09/16 00:44:05;;;;;;;6.67;2.20;;;;;;;13.33;100.00;98470.47;5027917;28;20221;-82
2022/09/16 00:46:40;;;;;;;2.83;1.90;;;;;;;13.25;100.00;98467.63;5030863;28;20228;-82
2022/09/16 00:49:15;;;;;;;4.67;1.80;;;;;;;13.21;100.00;98469.66;5025090;28;20201;-82
2022/09/16 00:51:47;;;;;;;4.57;2.10;;;;;;;13.13;100.00;98467.66;5031559;28;20251;-82
2022/09/16 00:54:18;;;;;;;6.40;2.23;;;;;;;13.17;100.00;98461.09;5025484;28;20254;-82
2022/09/16 00:56:51;;;;;;;5.83;2.10;;;;;;;13.27;100.00;98468.31;5023249;28;20335;-82
2022/09/16 00:59:38;;;;;;;8.23;2.13;;;;;;;13.30;100.00;98465.38;5030295;28;20225;-82
2022/09/16 01:02:11;;;;;;;8.37;2.40;;;;;;;13.05;100.00;98456.84;5050789;28;20188;-82
2022/09/16 01:04:46;;;;;;;7.73;2.40;;;;;;;13.23;100.00;98462.44;5004738;28;20256;-82
2022/09/16 01:07:16;;;;;;;7.43;2.20;;;;;;;13.30;100.00;98463.56;4994255;28;20234;-82
2022/09/16 01:09:47;;;;;;;6.37;2.40;;;;;;;13.06;100.00;98465.66;4987128;28;20289;-82
2022/09/16 01:12:16;;;;;;;6.23;2.47;;;;;;;13.09;100.00;98468.88;4989681;28;20277;-82
2022/09/16 01:14:57;;;;;;;6.87;2.73;;;;;;;13.06;100.00;98469.16;4984072;28;20265;-82
2022/09/16 01:17:46;;;;;;;5.10;2.00;;;;;;;13.06;100.00;98463.00;4990315;28;20198;-82
2022/09/16 01:20:35;;;;;;;5.50;2.10;;;;;;;13.17;100.00;98460.25;4992563;28;20253;-82
2022/09/16 01:23:39;;;;;;;6.10;2.50;;;;;;;12.88;100.00;98447.63;4986009;28;20290;-82
2022/09/16 01:26:26;;;;;;;6.57;2.33;;;;;;;13.04;100.00;98456.97;5018262;28;20199;-82
2022/09/16 01:29:36;;;;;;;5.13;1.97;;;;;;;13.07;100.00;98454.88;5027692;28;20194;-82
2022/09/16 01:32:13;;;;;;;3.93;2.07;;;;;;;13.16;100.00;98448.78;4949731;29;20234;-83
2022/09/16 01:34:51;;;;;;;4.87;1.97;;;;;;;13.10;100.00;98451.09;4938445;29;20708;-83
2022/09/16 01:37:33;;;;;;;4.13;1.90;;;;;;;13.15;100.00;98456.88;4999825;28;20277;-82
2022/09/16 01:40:09;;;;;;;3.87;1.77;;;;;;;13.05;100.00;98450.69;5020878;28;20271;-82
2022/09/16 01:42:49;;;;;;;7.63;2.17;;;;;;;13.08;100.00;98456.56;5026059;28;20189;-83
2022/09/16 01:45:24;;;;;;;4.70;2.20;;;;;;;13.07;100.00;98448.72;5022329;28;20689;-82
2022/09/16 01:48:00;;;;;;;5.67;2.00;;;;;;;13.04;100.00;98447.19;5064980;28;20200;-83
2022/09/16 01:50:34;;;;;;;5.63;1.73;;;;;;;13.10;100.00;98453.75;5065401;28;20280;-83
2022/09/16 01:53:13;;;;;;;6.40;2.10;;;;;;;12.96;100.00;98441.66;5064571;28;20261;-82
2022/09/16 01:55:49;;;;;;;4.63;1.80;;;;;;;12.86;100.00;98451.41;5068054;28;20200;-82
2022/09/16 01:58:23;;;;;;;5.90;2.37;;;;;;;12.87;100.00;98443.28;5067373;28;20196;-83
2022/09/16 02:00:59;;;;;;;7.17;2.20;;;;;;;12.93;100.00;98449.88;5069482;28;20199;-82
2022/09/16 02:03:35;;;;;;;7.10;2.00;;;;;;;12.80;100.00;98443.94;5069517;28;20204;-83
2022/09/16 02:06:08;;;;;;;4.60;2.03;;;;;;;12.76;100.00;98440.72;5074323;28;20647;-83
2022/09/16 02:08:44;;;;;;;4.73;1.67;;;;;;;12.92;100.00;98439.38;5074688;28;20196;-83
2022/09/16 02:11:16;;;;;;;4.43;1.97;;;;;;;12.82;100.00;98442.81;5074078;28;20219;-82
2022/09/16 02:13:50;;;;;;;7.97;2.13;;;;;;;12.85;100.00;98450.56;5067912;28;20303;-82
2022/09/16 02:16:23;;;;;;;6.40;2.00;;;;;;;12.82;100.00;98452.63;5065512;28;20188;-83
2022/09/16 02:18:58;;;;;;;5.17;2.00;;;;;;;12.76;100.00;98454.00;5064018;28;20296;-83
2022/09/16 02:21:32;;;;;;;4.47;2.10;;;;;;;12.74;100.00;98452.41;5065928;28;20222;-82
2022/09/16 02:24:05;;;;;;;6.07;1.60;;;;;;;12.69;100.00;98450.16;5067205;28;20199;-83
2022/09/16 02:26:37;;;;;;;5.90;1.90;;;;;;;12.69;100.00;98446.66;5067712;28;20200;-83
2022/09/16 02:29:13;;;;;;;6.80;1.77;;;;;;;12.72;100.00;98454.34;5067805;28;20706;-83
2022/09/16 02:31:43;;;;;;;3.93;1.90;;;;;;;12.49;100.00;98457.13;5064900;28;20207;-83
2022/09/16 02:34:16;;;;;;;4.80;2.03;;;;;;;12.50;100.00;98442.03;5066463;28;20215;-83
2022/09/16 02:36:49;;;;;;;4.23;1.77;;;;;;;12.42;100.00;98447.16;5071169;28;20199;-82
2022/09/16 02:39:23;;;;;;;5.37;1.70;;;;;;;12.37;100.00;98454.66;5068097;28;20208;-82
2022/09/16 02:41:51;;;;;;;3.50;1.50;;;;;;;12.36;100.00;98466.25;5006544;28;20218;-82
2022/09/16 02:44:21;;;;;;;5.17;1.83;;;;;;;12.46;100.00;98459.22;4987903;28;20337;-83
2022/09/16 02:47:00;;;;;;;8.03;2.10;;;;;;;12.47;100.00;98463.56;5005132;28;20264;-82
2022/09/16 02:49:40;;;;;;;4.27;1.80;;;;;;;12.36;100.00;98453.81;5008588;28;20669;-83
2022/09/16 02:52:17;;;;;;;4.70;1.63;;;;;;;12.54;100.00;98448.78;5005714;28;20241;-82
2022/09/16 02:54:52;;;;;;;4.33;1.80;;;;;;;12.63;100.00;98447.16;5007557;28;20225;-82
2022/09/16 02:57:21;;;;;;;4.30;2.00;;;;;;;12.58;100.00;98447.56;5009668;28;20226;-83
2022/09/16 02:59:50;;;;;;;8.73;1.83;;;;;;;12.39;100.00;98447.41;5030853;28;20200;-83
2022/09/16 03:02:19;;;;;;;4.63;1.70;;;;;;;12.49;100.00;98453.63;5063155;28;20714;-83
2022/09/16 03:04:49;;;;;;;5.37;1.97;;;;;;;12.45;100.00;98458.38;5063003;28;20200;-83
2022/09/16 03:07:18;;;;;;;5.33;1.90;;;;;;;12.50;100.00;98465.94;5067733;28;20220;-83
2022/09/16 03:09:49;;;;;;;7.17;2.40;;;;;;;12.53;100.00;98458.56;5068177;28;20253;-83
2022/09/16 03:12:38;;;;;;;6.87;1.90;;;;;;;12.57;100.00;98456.50;5070188;28;20188;-83
2022/09/16 03:15:27;;;;;;;4.90;2.13;;;;;;;12.74;100.00;98455.94;5066444;28;20244;-82
2022/09/16 03:18:16;;;;;;;6.13;2.20;;;;;;;12.74;100.00;98447.09;5066406;28;20273;-83
2022/09/16 03:20:54;;;;;;;3.73;1.73;;;;;;;12.79;100.00;98461.69;5069954;28;20414;-83
2022/09/16 03:23:31;;;;;;;5.30;2.03;;;;;;;12.78;100.00;98452.03;5066358;28;20635;-83
2022/09/16 03:26:10;;;;;;;6.30;2.30;;;;;;;12.84;100.00;98451.53;5068819;28;20227;-83
2022/09/16 03:28:48;;;;;;;6.67;1.90;;;;;;;12.89;100.00;98456.44;5065673;28;20196;-83
2022/09/16 03:31:22;;;;;;;6.43;2.40;;;;;;;12.82;100.00;98450.78;5038069;28;20203;-82
2022/09/16 03:33:58;;;;;;;6.67;2.17;;;;;;;12.64;100.00;98439.06;5009379;28;20228;-83
2022/09/16 03:36:33;;;;;;;5.57;1.90;;;;;;;12.63;100.00;98445.34;5011178;28;20201;-83
2022/09/16 03:39:06;;;;;;;9.03;2.10;;;;;;;12.29;100.00;98440.19;4948959;29;20219;-83
2022/09/16 03:41:35;;;;;;;3.93;1.70;;;;;;;12.13;100.00;98439.75;4945093;29;20259;-83
2022/09/16 03:44:04;;;;;;;2.90;1.80;;;;;;;12.02;100.00;98443.28;4952669;29;20192;-83
2022/09/16 03:46:41;;;;;;;3.53;1.60;;;;;;;11.88;100.00;98451.56;4948969;29;20290;-83
2022/09/16 03:49:13;;;;;;;7.37;2.07;;;;;;;12.00;100.00;98442.59;4949618;28;20200;-83
2022/09/16 03:51:43;;;;;;;8.53;1.90;;;;;;;12.11;100.00;98449.66;4943513;29;20291;-83
2022/09/16 03:54:12;;;;;;;4.73;1.70;;;;;;;12.26;100.00;98453.75;4945328;29;20377;-83
2022/09/16 03:56:40;;;;;;;6.83;2.17;;;;;;;12.23;100.00;98451.31;4958038;28;20202;-83
2022/09/16 03:59:09;;;;;;;7.50;2.00;;;;;;;12.12;100.00;98448.69;4999762;28;20218;-83
2022/09/16 04:01:39;;;;;;;5.37;2.03;;;;;;;11.97;100.00;98447.31;4990972;28;20230;-83
2022/09/16 04:04:08;;;;;;;7.97;1.90;;;;;;;12.10;100.00;98441.84;5013956;28;20194;-83
2022/09/16 04:06:36;;;;;;;4.40;1.93;;;;;;;12.09;100.00;98442.81;5063757;28;20189;-83
2022/09/16 04:09:07;;;;;;;4.37;1.93;;;;;;;12.09;100.00;98448.97;5070673;28;20193;-83
2022/09/16 04:11:35;;;;;;;4.37;2.07;;;;;;;11.88;100.00;98451.56;5071228;28;20228;-82
2022/09/16 04:14:06;;;;;;;6.70;2.07;;;;;;;11.88;100.00;98463.97;5068755;28;20199;-83
2022/09/16 04:16:36;;;;;;;4.67;2.03;;;;;;;11.73;100.00;98460.69;5073245;28;20196;-83
2022/09/16 04:19:07;;;;;;;4.97;1.60;;;;;;;11.55;100.00;98456.84;5067482;28;20197;-83
2022/09/16 04:21:38;;;;;;;4.90;2.20;;;;;;;11.61;100.00;98467.00;5064825;28;20224;-83
2022/09/16 04:24:10;;;;;;;6.73;2.07;;;;;;;11.66;100.00;98468.28;5066274;28;20644;-83
2022/09/16 04:26:40;;;;;;;7.43;2.30;;;;;;;11.75;100.00;98464.91;5070914;28;20196;-83
2022/09/16 04:29:10;;;;;;;6.10;2.43;;;;;;;11.84;100.00;98462.50;5068038;28;20241;-83
2022/09/16 04:31:41;;;;;;;5.53;2.00;;;;;;;11.89;100.00;98466.50;5068314;28;20204;-83
2022/09/16 04:34:11;;;;;;;4.47;2.03;;;;;;;11.89;100.00;98466.50;5071186;28;20188;-83
2022/09/16 04:36:39;;;;;;;8.13;2.20;;;;;;;11.98;100.00;98462.25;5035137;28;20200;-83
2022/09/16 04:39:11;;;;;;;4.73;2.13;;;;;;;12.08;100.00;98457.91;5070776;28;20193;-83
2022/09/16 04:41:39;;;;;;;8.00;2.10;;;;;;;12.04;100.00;98453.78;5068693;28;20224;-83
2022/09/16 04:44:10;;;;;;;7.80;2.20;;;;;;;12.06;100.00;98443.88;5070145;28;20227;-83
2022/09/16 04:46:39;;;;;;;5.53;2.20;;;;;;;12.18;100.00;98450.03;5071231;28;20247;-83
2022/09/16 04:49:08;;;;;;;3.97;2.30;;;;;;;12.07;100.00;98455.38;5068086;28;20203;-83
2022/09/16 04:51:37;;;;;;;4.93;1.73;;;;;;;11.94;100.00;98464.31;5070417;28;20230;-83
2022/09/16 04:54:06;;;;;;;5.57;2.00;;;;;;;11.56;100.00;98448.78;5067177;28;20220;-83
2022/09/16 04:56:36;;;;;;;3.70;1.77;;;;;;;11.41;100.00;98457.94;5066145;28;20240;-83
2022/09/16 04:59:06;;;;;;;4.70;1.70;;;;;;;11.54;100.00;98463.13;4991334;28;20286;-83
2022/09/16 05:01:37;;;;;;;9.90;2.40;;;;;;;11.39;100.00;98470.50;4991617;28;20253;-83
2022/09/16 05:04:07;;;;;;;8.37;1.93;;;;;;;11.52;100.00;98459.75;4995559;28;20250;-83
2022/09/16 05:06:37;;;;;;;4.60;2.13;;;;;;;11.44;100.00;98463.84;4988082;28;20215;-83
2022/09/16 05:09:07;;;;;;;4.10;1.97;;;;;;;11.41;100.00;98465.91;4990375;28;20229;-83
2022/09/16 05:11:39;;;;;;;5.67;2.20;;;;;;;11.60;100.00;98462.66;4990440;28;20202;-84
2022/09/16 05:14:09;;;;;;;8.53;2.13;;;;;;;11.54;100.00;98463.97;4991221;28;20222;-83
2022/09/16 05:16:37;;;;;;;7.07;2.27;;;;;;;11.47;100.00;98462.75;5011475;28;20707;-83
2022/09/16 05:19:06;;;;;;;6.50;2.30;;;;;;;11.55;100.00;98470.09;5066907;28;20256;-83
2022/09/16 05:21:37;;;;;;;7.50;2.13;;;;;;;11.49;100.00;98470.63;5072133;28;20729;-83
2022/09/16 05:24:11;;;;;;;5.20;2.10;;;;;;;11.60;100.00;98475.91;5071259;28;20202;-83
2022/09/16 05:26:43;;;;;;;6.23;2.47;;;;;;;11.68;100.00;98468.19;5063444;28;20192;-83
2022/09/16 05:29:14;;;;;;;3.80;2.00;;;;;;;11.76;100.00;98473.69;5067004;28;20242;-83
2022/09/16 05:31:46;;;;;;;4.67;2.40;;;;;;;11.80;100.00;98469.06;5023380;28;20656;-83
2022/09/16 05:34:20;;;;;;;5.40;2.30;;;;;;;11.83;100.00;98468.78;5067714;28;20235;-83
2022/09/16 05:36:52;;;;;;;7.90;2.30;;;;;;;11.99;100.00;98478.06;5025797;28;20217;-83
2022/09/16 05:39:21;;;;;;;3.63;2.10;;;;;;;12.09;100.00;98466.69;5024341;28;20190;-83
2022/09/16 05:41:57;;;;;;;4.60;2.20;;;;;;;12.09;100.00;98466.69;5032691;28;20217;-82
2022/09/16 05:44:27;;;;;;;3.73;1.90;;;;;;;12.21;100.00;98466.53;5024559;28;20248;-83
2022/09/16 05:46:56;;;;;;;6.03;2.70;;;;;;;12.10;100.00;98465.72;5027765;28;20252;-83
2022/09/16 05:49:24;;;;;;;5.47;2.60;;;;;;;12.21;100.00;98466.53;5028792;28;20221;-83
2022/09/16 05:51:53;;;;;;;6.97;2.77;;;;;;;12.30;100.00;98459.63;4987986;28;20273;-83
2022/09/16 05:54:24;;;;;;;7.57;2.83;;;;;;;12.32;100.00;98460.34;4995486;28;20316;-83
2022/09/16 05:56:54;;;;;;;4.37;2.67;;;;;;;12.44;100.00;98467.28;5026138;28;20685;-83
2022/09/16 05:59:23;;;;;;;7.83;4.27;;;;;;;12.50;100.00;98460.63;5027340;28;20221;-83
2022/09/16 06:01:52;;;;;;;10.07;3.50;;;;;;;12.55;100.00;98466.41;5029489;28;20248;-82
2022/09/16 06:04:20;;;;;;;8.50;2.90;;;;;;;12.63;100.00;98463.94;5028915;28;20197;-83
2022/09/16 06:06:49;;;;;;;6.03;2.50;;;;;;;12.71;100.00;98450.03;5022430;28;20234;-83
2022/09/16 06:09:20;;;;;;;5.07;2.37;;;;;;;12.73;100.00;98451.56;5018623;28;20278;-83
2022/09/16 06:11:50;;;;;;;6.30;2.30;;;;;;;12.44;100.00;98448.69;5025874;28;20320;-83
2022/09/16 06:14:24;;;;;;;8.27;2.63;;;;;;;12.63;100.00;98450.66;5025795;28;20205;-83
2022/09/16 06:16:53;;;;;;;5.30;2.47;;;;;;;12.79;100.00;98453.72;5048927;28;20243;-83
2022/09/16 06:19:22;;;;;;;4.57;2.33;;;;;;;12.83;100.00;98456.94;5065881;28;20224;-83
2022/09/16 06:21:50;;;;;;;8.93;3.03;;;;;;;12.87;100.00;98456.59;5064185;28;20267;-83
2022/09/16 06:24:20;;;;;;;5.23;2.67;;;;;;;12.79;100.00;98447.56;5062810;28;20231;-83
2022/09/16 06:26:49;;;;;;;5.10;2.67;;;;;;;13.05;100.00;98437.38;5069434;28;20200;-83
2022/09/16 06:29:18;;;;;;;5.53;3.00;;;;;;;13.09;100.00;98446.78;5066126;28;20247;-83
2022/09/16 06:31:51;;;;;;;7.33;2.90;;;;;;;12.75;100.00;98444.34;5069041;28;20210;-83
2022/09/16 06:34:23;;;;;;;9.90;3.00;;;;;;;12.78;100.00;98437.91;5023963;28;20196;-83
2022/09/16 06:36:51;;;;;;;5.93;2.83;;;;;;;13.00;100.00;98452.88;5068575;28;20208;-84
2022/09/16 06:39:21;;;;;;;6.40;3.17;;;;;;;12.94;100.00;98442.78;5067974;28;20243;-83
2022/09/16 06:41:52;;;;;;;12.47;3.60;;;;;;;13.09;100.00;98444.94;5065058;28;20216;-83
2022/09/16 06:44:22;;;;;;;5.87;3.80;;;;;;;13.05;100.00;98445.38;5018329;28;20192;-83
2022/09/16 06:46:52;;;;;;;6.53;2.90;;;;;;;13.12;100.00;98443.84;5069518;28;20330;-84
2022/09/16 06:49:23;;;;;;;7.87;3.53;;;;;;;13.22;100.00;98444.78;5065842;28;20636;-84
2022/09/16 06:51:56;;;;;;;6.07;3.10;;;;;;;13.36;100.00;98441.75;5064887;28;20223;-84
2022/09/16 06:54:26;;;;;;;6.03;3.30;;;;;;;13.46;100.00;98436.47;4986774;28;20198;-84
2022/09/16 06:56:54;;;;;;;8.77;3.70;;;;;;;13.38;100.00;98429.16;4990418;28;20261;-84
2022/09/16 06:59:25;;;;;;;6.93;3.77;;;;;;;12.78;100.00;98427.28;4960901;29;20212;-84
2022/09/16 07:01:55;;;;;;;9.73;4.00;;;;;;;12.86;100.00;98430.13;4952671;28;20196;-83
2022/09/16 07:04:24;;;;;;;7.13;3.90;;;;;;;13.03;100.00;98436.69;4947504;29;20363;-84
2022/09/16 07:06:56;;;;;;;9.00;3.90;;;;;;;13.09;100.00;98431.66;4933357;29;20241;-84
2022/09/16 07:09:38;;;;;;;7.13;3.87;;;;;;;12.81;100.00;98434.97;4894035;29;20198;-84
2022/09/16 07:12:06;;;;;;;7.80;4.00;;;;;;;12.71;100.00;98437.56;4892917;29;20702;-83
2022/09/16 07:14:35;;;;;;;8.97;4.20;;;;;;;12.81;100.00;98441.13;4890689;29;20210;-82
2022/09/16 07:17:07;;;;;;;6.70;3.60;;;;;;;12.93;100.00;98444.56;4899649;29;20225;-84
2022/09/16 07:19:37;;;;;;;8.20;3.90;;;;;;;12.99;100.00;98446.72;4912875;29;20228;-84
2022/09/16 07:22:06;;;;;;;4.97;3.17;;;;;;;13.08;100.00;98442.44;4914929;29;20638;-84
2022/09/16 07:24:35;;;;;;;6.83;3.50;;;;;;;13.33;100.00;98438.53;4919028;28;20228;-84
2022/09/16 07:27:04;;;;;;;8.37;3.10;;;;;;;13.48;100.00;98434.53;4983141;28;20199;-84
2022/09/16 07:29:33;;;;;;;8.00;2.97;;;;;;;13.25;100.00;98431.22;4972223;28;20203;-84
2022/09/16 07:32:02;;;;;;;7.20;2.73;;;;;;;13.44;100.00;98431.31;4970029;28;20203;-84
2022/09/16 07:34:35;;;;;;;7.83;3.20;;;;;;;13.58;100.00;98432.75;5024293;28;20219;-84
2022/09/16 07:37:03;;;;;;;5.93;2.60;;;;;;;13.64;100.00;98434.88;5040068;28;20235;-84
2022/09/16 07:39:34;;;;;;;9.23;2.83;;;;;;;13.87;100.00;98437.31;4971072;28;20361;-84
2022/09/16 07:42:03;;;;;;;5.13;2.33;;;;;;;13.91;100.00;98436.91;4963589;28;20327;-84
2022/09/16 07:44:36;;;;;;;6.63;2.20;;;;;;;13.93;100.00;98432.28;4918656;29;20201;-83
2022/09/16 07:47:05;;;;;;;4.83;2.20;;;;;;;14.08;100.00;98431.88;4918025;29;20197;-84
2022/09/16 07:49:37;;;;;;;4.07;2.10;;;;;;;14.17;100.00;98431.03;4935183;29;20224;-83
2022/09/16 07:52:05;;;;;;;4.43;2.30;;;;;;;14.06;100.00;98434.69;4937409;29;20212;-86
2022/09/16 07:54:34;;;;;;;6.20;2.50;;;;;;;14.14;100.00;98426.00;4932623;29;20208;-84
2022/09/16 07:57:02;;;;;;;7.40;2.20;;;;;;;14.31;100.00;98438.66;4897142;29;20212;-84
2022/09/16 07:59:33;;;;;;;6.73;2.20;;;;;;;14.38;100.00;98438.91;4934902;29;20702;-84
2022/09/16 08:02:02;;;;;;;6.37;2.20;;;;;;;14.44;100.00;98433.03;4935170;29;20201;-84
2022/09/16 08:04:31;;;;;;;6.37;2.30;;;;;;;14.46;100.00;98433.75;4937271;29;20201;-85
2022/09/16 08:07:02;;;;;;;5.67;2.40;;;;;;;14.60;100.00;98436.00;4934808;29;20209;-84
2022/09/16 08:09:36;;;;;;;6.93;2.73;;;;;;;14.55;100.00;98430.25;4956192;28;20196;-83
2022/09/16 08:12:13;;;;;;;6.80;2.47;;;;;;;14.77;100.00;98440.63;4970743;28;20211;-84
2022/09/16 08:14:42;;;;;;;7.83;2.40;;;;;;;14.84;100.00;98428.38;4983378;28;20216;-84
2022/09/16 08:17:10;;;;;;;7.03;2.70;;;;;;;14.63;100.00;98438.38;5039288;28;20266;-84
2022/09/16 08:19:40;;;;;;;4.53;2.30;;;;;;;14.74;100.00;98432.91;5066693;28;20227;-84
2022/09/16 08:22:10;;;;;;;6.67;2.30;;;;;;;14.57;100.00;98430.94;5071046;28;20224;-83
2022/09/16 08:24:39;;;;;;;5.10;2.17;;;;;;;14.56;100.00;98435.44;5068362;28;20196;-83
2022/09/16 08:27:08;;;;;;;4.80;2.17;;;;;;;14.53;100.00;98443.72;5070867;28;20202;-83
2022/09/16 08:29:36;;;;;;;7.33;2.30;;;;;;;14.46;100.00;98442.59;5071729;28;20200;-83
2022/09/16 08:32:07;;;;;;;8.03;2.47;;;;;;;14.05;100.00;98441.00;5067480;28;20200;-81
2022/09/16 08:34:36;;;;;;;12.63;2.90;;;;;;;13.89;100.00;98441.50;5066928;28;20208;-82
2022/09/16 08:37:07;;;;;;;8.43;3.50;;;;;;;13.82;100.00;98445.72;5071872;28;20212;-81
2022/09/16 08:39:39;;;;;;;5.33;3.00;;;;;;;13.87;100.00;98446.13;5070108;28;20256;-82
2022/09/16 08:42:30;;;;;;;6.40;2.47;;;;;;;13.89;100.00;98441.50;5071897;28;20220;-81
2022/09/16 08:45:09;;;;;;;5.97;2.67;;;;;;;13.67;100.00;98441.75;5064284;28;20220;-81
2022/09/16 08:47:49;;;;;;;6.73;2.93;;;;;;;14.04;100.00;98456.13;5068004;28;20198;-81
2022/09/16 08:50:23;;;;;;;3.87;2.27;;;;;;;14.34;100.00;98446.34;5069092;28;20188;-83
2022/09/16 08:52:56;;;;;;;4.23;2.37;;;;;;;14.42;100.00;98445.66;5034907;28;20192;-81
2022/09/16 08:55:35;;;;;;;3.60;1.77;;;;;;;14.48;100.00;98445.13;5068229;28;20226;-81
2022/09/16 08:58:10;;;;;;;6.80;2.17;;;;;;;14.21;100.00;98441.31;5066152;28;20255;-81
2022/09/16 09:00:42;;;;;;;3.27;1.87;;;;;;;14.68;100.00;98451.31;5035903;28;20291;-82
2022/09/16 09:03:19;;;;;;;5.30;2.33;;;;;;;14.73;100.00;98446.38;5066838;28;20212;-82
2022/09/16 09:05:52;;;;;;;5.57;2.70;;;;;;;14.97;100.00;98454.78;5067798;28;20258;-81
2022/09/16 09:08:38;;;;;;;7.00;2.30;;;;;;;14.97;100.00;98443.28;5072611;28;20234;-82
2022/09/16 09:11:30;;;;;;;5.80;2.33;;;;;;;15.20;100.00;98433.09;5072449;28;20196;-82
2022/09/16 09:14:19;;;;;;;8.13;2.67;;;;;;;15.10;100.00;98443.78;5072625;28;20701;-81
2022/09/16 09:16:58;;;;;;;4.53;2.33;;;;;;;15.07;100.00;98439.59;5065029;28;20355;-81
2022/09/16 09:19:46;;;;;;;6.80;2.50;;;;;;;14.95;100.00;98437.22;5072378;28;20238;-81
2022/09/16 09:22:34;;;;;;;5.07;2.60;;;;;;;15.58;100.00;98424.94;5070975;28;20200;-80
2022/09/16 09:25:27;;;;;;;5.53;2.80;;;;;;;15.64;100.00;98420.88;5009362;28;20217;-81
2022/09/16 09:28:09;;;;;;;4.97;2.77;;;;;;;15.57;100.00;98427.75;5010543;28;20659;-82
2022/09/16 09:30:40;;;;;;;7.60;2.60;;;;;;;15.51;100.00;98431.00;5011938;28;20674;-82
2022/09/16 09:33:20;;;;;;;6.93;2.60;;;;;;;15.31;100.00;98427.56;4953806;29;20193;-81
2022/09/16 09:36:29;;;;;;;5.97;3.00;;;;;;;14.87;100.00;98438.78;4954897;28;20212;-82
2022/09/16 09:39:37;;;;;;;6.17;2.77;;;;;;;14.90;100.00;98435.00;4912405;29;20226;-83
2022/09/16 09:42:14;;;;;;;5.73;3.00;;;;;;;14.81;100.00;98436.69;4876751;29;20259;-83
2022/09/16 09:44:52;;;;;;;7.00;3.23;;;;;;;15.12;100.00;98433.81;4944310;29;20204;-83
2022/09/16 09:47:31;;;;;;;6.20;3.30;;;;;;;15.73;100.00;98425.31;4948910;29;20200;-83
2022/09/16 09:50:15;;;;;;;4.50;2.90;;;;;;;15.85;100.00;98420.63;4952708;29;20215;-81
2022/09/16 09:52:49;;;;;;;6.07;3.20;;;;;;;16.08;100.00;98415.69;4991843;28;20707;-83
2022/09/16 09:55:23;;;;;;;3.57;2.97;;;;;;;16.27;100.00;98413.72;4990563;28;20206;-83
2022/09/16 09:58:06;;;;;;;5.87;2.90;;;;;;;15.46;100.00;98416.28;4996873;28;20213;-84
2022/09/16 10:00:37;;;;;;;5.33;3.10;;;;;;;15.56;100.00;98415.41;5013240;28;20225;-84
2022/09/16 10:03:09;;;;;;;4.40;2.80;;;;;;;15.52;100.00;98412.16;5012645;28;20229;-83
2022/09/16 10:05:39;;;;;;;6.53;3.03;;;;;;;15.38;100.00;98410.00;5009044;28;20198;-83
2022/09/16 10:08:15;;;;;;;6.47;2.90;;;;;;;15.46;100.00;98420.78;5012274;28;20194;-83
2022/09/16 10:10:49;;;;;;;4.63;3.07;;;;;;;15.44;100.00;98415.59;5002378;28;20186;-83
2022/09/16 10:13:18;;;;;;;5.13;2.60;;;;;;;15.59;100.00;98405.25;5009340;28;20197;-82
2022/09/16 10:15:50;;;;;;;5.93;2.60;;;;;;;16.47;100.00;98402.84;5012351;28;20194;-82
2022/09/16 10:18:26;;;;;;;4.63;2.10;;;;;;;16.52;100.00;98398.75;5008398;28;20249;-83
2022/09/16 10:21:03;;;;;;;4.77;1.80;;;;;;;16.86;100.00;98408.72;5010801;28;20201;-83
2022/09/16 10:23:32;;;;;;;4.03;1.93;;;;;;;16.60;100.00;98397.97;5068406;28;20211;-84
2022/09/16 10:26:09;;;;;;;4.10;1.87;;;;;;;16.60;100.00;98396.13;5070290;28;20200;-83
2022/09/16 10:28:39;;;;;;;3.20;1.70;;;;;;;16.43;100.00;98406.84;5067323;28;20192;-83
2022/09/16 10:31:11;;;;;;;4.27;1.80;;;;;;;16.29;100.00;98398.34;5062652;28;20227;-83
2022/09/16 10:33:44;;;;;;;3.57;1.70;;;;;;;15.96;100.00;98396.38;5066520;28;20207;-83
2022/09/16 10:36:22;;;;;;;4.13;1.60;;;;;;;15.83;100.00;98390.56;5034596;28;20192;-82
2022/09/16 10:38:55;;;;;;;2.37;1.57;;;;;;;15.83;100.00;98394.06;5067117;28;20216;-83
2022/09/16 10:41:44;;;;;;;4.50;1.80;;;;;;;16.00;100.00;98395.91;5072218;28;20216;-83
2022/09/16 10:44:19;;;;;;;3.80;1.80;;;;;;;16.27;100.00;98396.84;5032927;28;20192;-83
2022/09/16 10:46:56;;;;;;;5.37;1.80;;;;;;;16.90;100.00;98390.53;5070124;28;20224;-83
2022/09/16 10:49:34;;;;;;;4.43;1.50;;;;;;;17.10;100.00;98403.53;5068119;28;20193;-83
2022/09/16 10:52:16;;;;;;;2.83;1.70;;;;;;;17.22;100.00;98398.75;5071607;28;20200;-82
2022/09/16 10:54:45;;;;;;;4.17;1.50;;;;;;;17.53;100.00;98388.34;5067364;28;20196;-83
2022/09/16 10:57:27;;;;;;;4.47;1.37;;;;;;;17.69;100.00;98392.94;5069061;28;20196;-81
2022/09/16 11:00:03;;;;;;;4.40;1.20;;;;;;;17.93;100.00;98390.34;5062550;28;20228;-81
2022/09/16 11:02:50;;;;;;;3.17;1.13;;;;;;;17.78;100.00;98383.97;5071828;28;20195;-81
2022/09/16 11:05:30;;;;;;;4.10;1.40;;;;;;;17.31;100.00;98381.72;5062914;28;20211;-83
2022/09/16 11:08:10;;;;;;;2.93;1.80;;;;;;;17.36;100.00;98387.44;5064604;28;20192;-81
2022/09/16 11:10:47;;;;;;;3.37;1.60;;;;;;;17.17;100.00;98380.47;5063374;28;20661;-80
2022/09/16 11:13:32;;;;;;;4.23;1.80;;;;;;;16.87;100.00;98379.13;5066161;28;20204;-80
2022/09/16 11:16:30;;;;;;;3.10;1.50;;;;;;;16.45;100.00;98395.00;5064604;28;20227;-83
2022/09/16 11:19:15;;;;;;;4.03;1.70;;;;;;;16.27;100.00;98395.00;5071633;28;20722;-83
2022/09/16 11:21:59;;;;;;;7.53;1.90;;;;;;;16.18;100.00;98397.75;5068115;28;20253;-83
2022/09/16 11:25:18;;;;;;;1.93;1.60;;;;;;;16.41;100.00;98398.16;5069044;28;20280;-83
2022/09/16 11:27:55;;;;;;;3.07;1.80;;;;;;;17.19;100.00;98387.53;5067027;28;20273;-81
2022/09/16 11:30:25;;;;;;;3.00;1.13;;;;;;;17.50;100.00;98390.53;5065685;28;20192;-81
2022/09/16 11:33:21;;;;;;;2.07;1.10;;;;;;;17.09;100.00;98393.00;5066636;28;20250;-83
2022/09/16 11:36:26;;;;;;;4.33;0.80;;;;;;;17.49;91.79;98388.84;5067658;28;20224;-84
2022/09/16 11:39:11;;;;;;;1.87;1.10;;;;;;;17.90;89.84;98381.81;5029646;28;20241;-81
2022/09/16 11:41:48;;;;;;;3.33;0.80;;;;;;;18.31;90.49;98377.34;5025480;28;20217;-84
2022/09/16 11:44:39;;;;;;;1.20;0.80;;;;;;;18.55;85.08;98382.75;5026214;28;20348;-81
2022/09/16 11:47:28;;;;;;;2.40;0.87;;;;;;;17.82;87.75;98381.78;5025395;28;20201;-81
2022/09/16 11:50:21;;;;;;;2.33;1.07;;;;;;;18.30;92.67;98378.34;5027625;28;20307;-83
2022/09/16 11:53:07;;;;;;;2.90;0.90;;;;;;;17.34;97.55;98370.69;5026600;28;20225;-84
2022/09/16 11:55:48;;;;;;;2.50;0.97;;;;;;;18.29;95.85;98369.47;5023577;28;20241;-83
2022/09/16 11:58:30;;;;;;;4.20;1.20;;;;;;;18.02;93.48;98369.78;5065841;28;20188;-83